sensor_id;sensor_type;location;lat;lon;timestamp;pressure;altitude;pressure_sealevel;temperature;humidity
20825;BME280;10573;50.936;6.978;2022-12-29T00:01:23;100027.97;;;14.03;63.77
20825;BME280;10573;50.936;6.978;2022-12-29T00:03:48;100028.16;;;14.01;63.88
20825;BME280;10573;50.936;6.978;2022-12-29T00:06:14;100020.56;;;14.12;64.11
20825;BME280;10573;50.936;6.978;2022-12-29T00:08:39;100013.94;;;14.21;63.96
20825;BME280;10573;50.936;6.978;2022-12-29T00:11:10;100010.81;;;14.09;63.97
20825;BME280;10573;50.936;6.978;2022-12-29T00:13:36;100002.09;;;13.90;64.72
20825;BME280;10573;50.936;6.978;2022-12-29T00:16:20;99997.22;;;14.01;64.53
20825;BME280;10573;50.936;6.978;2022-12-29T00:18:45;100004.13;;;14.12;63.98
20825;BME280;10573;50.936;6.978;2022-12-29T00:21:15;100002.72;;;14.31;63.83
20825;BME280;10573;50.936;6.978;2022-12-29T00:24:00;99999.19;;;14.22;64.10
20825;BME280;10573;50.936;6.978;2022-12-29T00:26:45;99995.44;;;14.38;63.75
20825;BME280;10573;50.936;6.978;2022-12-29T00:29:30;99990.41;;;14.56;63.09
20825;BME280;10573;50.936;6.978;2022-12-29T00:32:14;99987.88;;;14.40;63.57
20825;BME280;10573;50.936;6.978;2022-12-29T00:35:02;99975.09;;;14.47;63.02
20825;BME280;10573;50.936;6.978;2022-12-29T00:37:38;99984.94;;;14.56;62.83
20825;BME280;10573;50.936;6.978;2022-12-29T00:40:24;99980.50;;;14.40;63.06
20825;BME280;10573;50.936;6.978;2022-12-29T00:43:08;99987.09;;;14.31;63.08
20825;BME280;10573;50.936;6.978;2022-12-29T00:45:52;99980.88;;;14.67;62.16
20825;BME280;10573;50.936;6.978;2022-12-29T00:48:17;99973.69;;;14.66;61.92
20825;BME280;10573;50.936;6.978;2022-12-29T00:51:03;99979.19;;;14.36;62.55
20825;BME280;10573;50.936;6.978;2022-12-29T00:53:28;99968.41;;;14.50;62.15
20825;BME280;10573;50.936;6.978;2022-12-29T00:55:53;99967.09;;;14.46;62.45
20825;BME280;10573;50.936;6.978;2022-12-29T00:58:19;99968.38;;;14.80;61.28
20825;BME280;10573;50.936;6.978;2022-12-29T01:00:44;99976.16;;;14.76;61.39
20825;BME280;10573;50.936;6.978;2022-12-29T01:03:09;99990.53;;;14.63;61.70
20825;BME280;10573;50.936;6.978;2022-12-29T01:05:38;99971.00;;;14.88;61.38
20825;BME280;10573;50.936;6.978;2022-12-29T01:08:03;99977.00;;;14.47;62.07
20825;BME280;10573;50.936;6.978;2022-12-29T01:10:29;99975.13;;;14.32;63.19
20825;BME280;10573;50.936;6.978;2022-12-29T01:12:54;99972.19;;;14.34;63.52
20825;BME280;10573;50.936;6.978;2022-12-29T01:15:20;99966.91;;;14.32;63.04
20825;BME280;10573;50.936;6.978;2022-12-29T01:17:46;99966.69;;;14.49;62.39
20825;BME280;10573;50.936;6.978;2022-12-29T01:20:11;99981.09;;;14.66;61.71
20825;BME280;10573;50.936;6.978;2022-12-29T01:22:37;99975.97;;;14.77;61.36
20825;BME280;10573;50.936;6.978;2022-12-29T01:25:04;99980.19;;;14.50;62.03
20825;BME280;10573;50.936;6.978;2022-12-29T01:27:29;99980.56;;;14.77;61.48
20825;BME280;10573;50.936;6.978;2022-12-29T01:29:55;99972.34;;;14.77;60.85
20825;BME280;10573;50.936;6.978;2022-12-29T01:32:20;99963.97;;;14.79;60.88
20825;BME280;10573;50.936;6.978;2022-12-29T01:34:46;99968.81;;;14.98;59.73
20825;BME280;10573;50.936;6.978;2022-12-29T01:37:11;99974.03;;;14.93;59.03
20825;BME280;10573;50.936;6.978;2022-12-29T01:39:37;99963.31;;;14.98;58.89
20825;BME280;10573;50.936;6.978;2022-12-29T01:42:02;99958.94;;;15.04;57.92
20825;BME280;10573;50.936;6.978;2022-12-29T01:47:28;99958.00;;;14.75;57.68
20825;BME280;10573;50.936;6.978;2022-12-29T01:49:56;99959.97;;;15.18;56.43
20825;BME280;10573;50.936;6.978;2022-12-29T01:52:24;99957.66;;;15.21;55.93
20825;BME280;10573;50.936;6.978;2022-12-29T01:54:53;99961.75;;;14.89;56.25
20825;BME280;10573;50.936;6.978;2022-12-29T01:57:27;99962.25;;;15.36;54.89
20825;BME280;10573;50.936;6.978;2022-12-29T02:00:30;99954.59;;;15.53;54.42
20825;BME280;10573;50.936;6.978;2022-12-29T02:02:52;99947.97;;;15.04;55.14
20825;BME280;10573;50.936;6.978;2022-12-29T02:05:51;99938.91;;;15.03;54.69
20825;BME280;10573;50.936;6.978;2022-12-29T02:08:21;99934.03;;;14.99;54.60
20825;BME280;10573;50.936;6.978;2022-12-29T02:10:48;99939.59;;;15.27;54.17
20825;BME280;10573;50.936;6.978;2022-12-29T02:13:17;99932.97;;;15.21;53.85
20825;BME280;10573;50.936;6.978;2022-12-29T02:15:48;99925.72;;;15.14;53.81
20825;BME280;10573;50.936;6.978;2022-12-29T02:18:32;99923.81;;;15.14;53.98
20825;BME280;10573;50.936;6.978;2022-12-29T02:26:49;99926.91;;;15.04;53.73
20825;BME280;10573;50.936;6.978;2022-12-29T02:45:36;99923.31;;;15.25;53.70
20825;BME280;10573;50.936;6.978;2022-12-29T02:48:09;99915.94;;;15.26;53.74
20825;BME280;10573;50.936;6.978;2022-12-29T02:50:43;99914.50;;;15.30;54.13
20825;BME280;10573;50.936;6.978;2022-12-29T02:53:15;99911.41;;;15.40;53.81
20825;BME280;10573;50.936;6.978;2022-12-29T02:55:48;99913.31;;;14.96;55.46
20825;BME280;10573;50.936;6.978;2022-12-29T02:58:19;99911.47;;;15.25;54.72
20825;BME280;10573;50.936;6.978;2022-12-29T03:06:56;99906.06;;;14.88;56.58
20825;BME280;10573;50.936;6.978;2022-12-29T03:12:29;99890.72;;;14.94;56.79
20825;BME280;10573;50.936;6.978;2022-12-29T03:15:29;99891.16;;;14.76;57.48
20825;BME280;10573;50.936;6.978;2022-12-29T03:21:09;99878.97;;;14.79;57.89
20825;BME280;10573;50.936;6.978;2022-12-29T03:23:38;99877.91;;;15.01;57.62
20825;BME280;10573;50.936;6.978;2022-12-29T03:26:08;99872.00;;;14.61;58.79
20825;BME280;10573;50.936;6.978;2022-12-29T03:28:39;99879.09;;;14.92;58.31
20825;BME280;10573;50.936;6.978;2022-12-29T03:31:08;99861.06;;;15.04;58.21
20825;BME280;10573;50.936;6.978;2022-12-29T03:33:35;99850.31;;;14.81;58.89
20825;BME280;10573;50.936;6.978;2022-12-29T03:36:04;99863.69;;;14.91;58.72
20825;BME280;10573;50.936;6.978;2022-12-29T03:38:37;99864.78;;;14.75;59.08
20825;BME280;10573;50.936;6.978;2022-12-29T03:41:07;99859.25;;;14.90;58.90
20825;BME280;10573;50.936;6.978;2022-12-29T03:43:34;99879.41;;;15.04;58.30
20825;BME280;10573;50.936;6.978;2022-12-29T03:45:59;99866.16;;;15.07;58.39
20825;BME280;10573;50.936;6.978;2022-12-29T03:48:25;99867.06;;;14.93;58.71
20825;BME280;10573;50.936;6.978;2022-12-29T03:50:50;99863.94;;;14.96;58.51
20825;BME280;10573;50.936;6.978;2022-12-29T03:53:16;99847.50;;;14.96;58.56
20825;BME280;10573;50.936;6.978;2022-12-29T03:55:41;99834.41;;;14.98;58.24
20825;BME280;10573;50.936;6.978;2022-12-29T03:58:07;99842.13;;;14.88;58.45
20825;BME280;10573;50.936;6.978;2022-12-29T04:00:32;99831.25;;;14.58;59.00
20825;BME280;10573;50.936;6.978;2022-12-29T04:02:57;99839.97;;;14.83;58.62
20825;BME280;10573;50.936;6.978;2022-12-29T04:05:23;99840.44;;;14.87;58.44
20825;BME280;10573;50.936;6.978;2022-12-29T04:07:49;99846.16;;;14.70;58.60
20825;BME280;10573;50.936;6.978;2022-12-29T04:10:14;99838.59;;;14.72;58.71
20825;BME280;10573;50.936;6.978;2022-12-29T04:12:39;99843.63;;;14.54;59.24
20825;BME280;10573;50.936;6.978;2022-12-29T04:15:07;99830.69;;;14.63;58.77
20825;BME280;10573;50.936;6.978;2022-12-29T04:17:33;99831.91;;;14.60;59.06
20825;BME280;10573;50.936;6.978;2022-12-29T04:19:58;99839.44;;;14.36;59.42
20825;BME280;10573;50.936;6.978;2022-12-29T04:22:44;99834.47;;;14.25;59.75
20825;BME280;10573;50.936;6.978;2022-12-29T04:25:09;99829.16;;;14.60;58.86
20825;BME280;10573;50.936;6.978;2022-12-29T04:27:35;99822.66;;;14.61;58.96
20825;BME280;10573;50.936;6.978;2022-12-29T04:30:00;99824.00;;;14.65;58.65
20825;BME280;10573;50.936;6.978;2022-12-29T04:32:26;99810.72;;;14.32;59.42
20825;BME280;10573;50.936;6.978;2022-12-29T04:34:51;99813.91;;;14.94;57.89
20825;BME280;10573;50.936;6.978;2022-12-29T04:37:17;99817.16;;;14.61;58.68
20825;BME280;10573;50.936;6.978;2022-12-29T04:39:42;99808.13;;;14.46;58.92
20825;BME280;10573;50.936;6.978;2022-12-29T04:42:07;99819.69;;;14.41;58.97
20825;BME280;10573;50.936;6.978;2022-12-29T04:44:33;99830.72;;;14.48;58.65
20825;BME280;10573;50.936;6.978;2022-12-29T04:46:58;99841.22;;;14.81;57.61
20825;BME280;10573;50.936;6.978;2022-12-29T04:49:23;99838.72;;;14.64;57.92
20825;BME280;10573;50.936;6.978;2022-12-29T04:51:49;99843.25;;;14.93;57.24
20825;BME280;10573;50.936;6.978;2022-12-29T04:54:14;99839.13;;;14.83;56.73
20825;BME280;10573;50.936;6.978;2022-12-29T04:56:40;99839.22;;;14.89;56.64
20825;BME280;10573;50.936;6.978;2022-12-29T04:59:05;99853.59;;;15.20;55.69
20825;BME280;10573;50.936;6.978;2022-12-29T05:01:30;99849.69;;;15.07;55.91
20825;BME280;10573;50.936;6.978;2022-12-29T05:03:56;99834.66;;;15.25;55.27
20825;BME280;10573;50.936;6.978;2022-12-29T05:06:21;99827.47;;;15.24;54.76
20825;BME280;10573;50.936;6.978;2022-12-29T05:08:47;99835.22;;;14.92;55.16
20825;BME280;10573;50.936;6.978;2022-12-29T05:11:12;99826.00;;;15.00;54.92
20825;BME280;10573;50.936;6.978;2022-12-29T05:13:37;99830.50;;;15.07;55.04
20825;BME280;10573;50.936;6.978;2022-12-29T05:16:03;99837.53;;;15.17;54.59
20825;BME280;10573;50.936;6.978;2022-12-29T05:18:28;99837.69;;;15.37;54.13
20825;BME280;10573;50.936;6.978;2022-12-29T05:20:54;99844.84;;;15.31;53.91
20825;BME280;10573;50.936;6.978;2022-12-29T05:23:19;99861.78;;;15.41;53.73
20825;BME280;10573;50.936;6.978;2022-12-29T05:25:44;99869.31;;;15.04;54.13
20825;BME280;10573;50.936;6.978;2022-12-29T05:28:10;99876.63;;;15.19;53.82
20825;BME280;10573;50.936;6.978;2022-12-29T05:30:36;99863.28;;;15.16;53.95
20825;BME280;10573;50.936;6.978;2022-12-29T05:33:01;99874.25;;;15.16;53.78
20825;BME280;10573;50.936;6.978;2022-12-29T05:35:27;99861.09;;;15.61;52.86
20825;BME280;10573;50.936;6.978;2022-12-29T05:37:52;99850.34;;;14.88;53.97
20825;BME280;10573;50.936;6.978;2022-12-29T05:40:17;99859.50;;;15.17;53.65
20825;BME280;10573;50.936;6.978;2022-12-29T05:42:43;99867.06;;;14.93;54.19
20825;BME280;10573;50.936;6.978;2022-12-29T05:45:09;99862.19;;;15.38;53.40
20825;BME280;10573;50.936;6.978;2022-12-29T05:47:34;99869.53;;;15.59;52.56
20825;BME280;10573;50.936;6.978;2022-12-29T05:50:00;99886.66;;;14.90;53.97
20825;BME280;10573;50.936;6.978;2022-12-29T05:52:26;99876.84;;;15.24;53.57
20825;BME280;10573;50.936;6.978;2022-12-29T05:54:51;99876.97;;;15.37;53.12
20825;BME280;10573;50.936;6.978;2022-12-29T05:57:17;99879.84;;;15.29;53.69
20825;BME280;10573;50.936;6.978;2022-12-29T05:59:42;99880.53;;;15.09;53.92
20825;BME280;10573;50.936;6.978;2022-12-29T06:02:09;99883.00;;;15.04;54.17
20825;BME280;10573;50.936;6.978;2022-12-29T06:04:34;99889.13;;;15.28;53.57
20825;BME280;10573;50.936;6.978;2022-12-29T06:07:00;99881.56;;;15.08;53.71
20825;BME280;10573;50.936;6.978;2022-12-29T06:09:25;99874.00;;;14.89;54.37
20825;BME280;10573;50.936;6.978;2022-12-29T06:11:51;99872.41;;;15.44;53.08
20825;BME280;10573;50.936;6.978;2022-12-29T06:14:16;99887.47;;;15.05;53.67
20825;BME280;10573;50.936;6.978;2022-12-29T06:16:42;99882.75;;;15.21;53.79
20825;BME280;10573;50.936;6.978;2022-12-29T06:19:07;99890.41;;;15.25;53.36
20825;BME280;10573;50.936;6.978;2022-12-29T06:21:33;99881.16;;;15.33;53.17
20825;BME280;10573;50.936;6.978;2022-12-29T06:23:58;99875.78;;;15.47;52.82
20825;BME280;10573;50.936;6.978;2022-12-29T06:26:24;99865.97;;;15.37;53.04
20825;BME280;10573;50.936;6.978;2022-12-29T06:28:49;99861.22;;;15.46;52.69
20825;BME280;10573;50.936;6.978;2022-12-29T06:31:15;99878.16;;;14.85;54.53
20825;BME280;10573;50.936;6.978;2022-12-29T06:33:40;99876.16;;;14.93;54.80
20825;BME280;10573;50.936;6.978;2022-12-29T06:36:06;99875.66;;;15.33;53.66
20825;BME280;10573;50.936;6.978;2022-12-29T06:38:31;99885.28;;;15.01;55.01
20825;BME280;10573;50.936;6.978;2022-12-29T06:40:56;99895.88;;;15.25;54.59
20825;BME280;10573;50.936;6.978;2022-12-29T06:43:22;99911.72;;;14.65;56.39
20825;BME280;10573;50.936;6.978;2022-12-29T06:45:47;99894.63;;;14.85;56.08
20825;BME280;10573;50.936;6.978;2022-12-29T06:48:12;99904.97;;;15.04;55.76
20825;BME280;10573;50.936;6.978;2022-12-29T06:50:38;99907.84;;;14.96;55.93
20825;BME280;10573;50.936;6.978;2022-12-29T06:53:03;99905.22;;;15.09;55.50
20825;BME280;10573;50.936;6.978;2022-12-29T06:55:29;99909.28;;;14.77;56.05
20825;BME280;10573;50.936;6.978;2022-12-29T06:57:55;99904.19;;;15.39;54.91
20825;BME280;10573;50.936;6.978;2022-12-29T07:00:21;99889.00;;;14.93;55.51
20825;BME280;10573;50.936;6.978;2022-12-29T07:02:47;99897.16;;;14.86;55.05
20825;BME280;10573;50.936;6.978;2022-12-29T07:05:12;99910.66;;;15.03;54.63
20825;BME280;10573;50.936;6.978;2022-12-29T07:07:39;99905.47;;;15.15;54.13
20825;BME280;10573;50.936;6.978;2022-12-29T07:10:04;99896.91;;;15.46;53.49
20825;BME280;10573;50.936;6.978;2022-12-29T07:12:30;99892.38;;;15.38;53.44
20825;BME280;10573;50.936;6.978;2022-12-29T07:14:55;99899.69;;;15.53;52.89
20825;BME280;10573;50.936;6.978;2022-12-29T07:17:20;99921.16;;;15.21;52.82
20825;BME280;10573;50.936;6.978;2022-12-29T07:19:46;99920.88;;;14.94;52.89
20825;BME280;10573;50.936;6.978;2022-12-29T07:22:11;99920.25;;;14.92;52.55
20825;BME280;10573;50.936;6.978;2022-12-29T07:24:37;99935.63;;;14.93;52.82
20825;BME280;10573;50.936;6.978;2022-12-29T07:27:03;99950.56;;;15.05;52.43
20825;BME280;10573;50.936;6.978;2022-12-29T07:29:28;99947.16;;;15.25;51.79
20825;BME280;10573;50.936;6.978;2022-12-29T07:31:53;99952.94;;;14.93;52.64
20825;BME280;10573;50.936;6.978;2022-12-29T07:34:19;99949.56;;;15.13;52.31
20825;BME280;10573;50.936;6.978;2022-12-29T07:36:44;99948.63;;;14.84;52.92
20825;BME280;10573;50.936;6.978;2022-12-29T07:39:09;99957.84;;;14.98;52.45
20825;BME280;10573;50.936;6.978;2022-12-29T07:41:39;99961.06;;;15.02;52.29
20825;BME280;10573;50.936;6.978;2022-12-29T07:44:05;99961.66;;;15.19;51.78
20825;BME280;10573;50.936;6.978;2022-12-29T07:46:30;99966.50;;;14.80;53.00
20825;BME280;10573;50.936;6.978;2022-12-29T07:48:55;99971.81;;;15.03;52.53
20825;BME280;10573;50.936;6.978;2022-12-29T07:51:21;99983.16;;;14.79;52.64
20825;BME280;10573;50.936;6.978;2022-12-29T07:53:46;99996.84;;;14.93;52.68
20825;BME280;10573;50.936;6.978;2022-12-29T07:56:12;100002.31;;;14.93;52.38
20825;BME280;10573;50.936;6.978;2022-12-29T07:58:37;100004.53;;;15.05;52.07
20825;BME280;10573;50.936;6.978;2022-12-29T08:01:03;100002.59;;;14.84;52.73
20825;BME280;10573;50.936;6.978;2022-12-29T08:03:28;100011.81;;;14.76;52.66
20825;BME280;10573;50.936;6.978;2022-12-29T08:05:53;100008.25;;;15.34;51.34
20825;BME280;10573;50.936;6.978;2022-12-29T08:08:20;100010.00;;;14.68;52.62
20825;BME280;10573;50.936;6.978;2022-12-29T08:10:45;100007.63;;;14.80;52.40
20825;BME280;10573;50.936;6.978;2022-12-29T08:13:10;100002.22;;;14.87;52.21
20825;BME280;10573;50.936;6.978;2022-12-29T08:15:37;100008.03;;;15.14;51.46
20825;BME280;10573;50.936;6.978;2022-12-29T08:18:03;100007.03;;;14.85;52.05
20825;BME280;10573;50.936;6.978;2022-12-29T08:20:29;100012.09;;;14.81;52.15
20825;BME280;10573;50.936;6.978;2022-12-29T08:22:54;100009.72;;;14.78;52.11
20825;BME280;10573;50.936;6.978;2022-12-29T08:25:20;100013.03;;;14.73;52.21
20825;BME280;10573;50.936;6.978;2022-12-29T08:27:46;100027.88;;;14.64;52.26
20825;BME280;10573;50.936;6.978;2022-12-29T08:30:12;100016.31;;;14.84;51.38
20825;BME280;10573;50.936;6.978;2022-12-29T08:32:37;100017.06;;;14.63;51.93
20825;BME280;10573;50.936;6.978;2022-12-29T08:35:03;100024.34;;;14.55;51.53
20825;BME280;10573;50.936;6.978;2022-12-29T08:37:28;100017.72;;;14.94;50.69
20825;BME280;10573;50.936;6.978;2022-12-29T08:39:54;100001.69;;;14.76;50.78
20825;BME280;10573;50.936;6.978;2022-12-29T08:42:19;100020.84;;;14.47;51.19
20825;BME280;10573;50.936;6.978;2022-12-29T08:44:44;100023.09;;;14.88;50.38
20825;BME280;10573;50.936;6.978;2022-12-29T08:47:11;100023.97;;;14.58;50.74
20825;BME280;10573;50.936;6.978;2022-12-29T08:49:36;100031.84;;;14.76;50.05
20825;BME280;10573;50.936;6.978;2022-12-29T08:52:02;100047.53;;;14.83;50.39
20825;BME280;10573;50.936;6.978;2022-12-29T08:54:27;100030.59;;;14.94;49.83
20825;BME280;10573;50.936;6.978;2022-12-29T08:56:53;100041.28;;;14.59;50.26
20825;BME280;10573;50.936;6.978;2022-12-29T08:59:19;100039.66;;;14.50;49.96
20825;BME280;10573;50.936;6.978;2022-12-29T09:01:44;100054.06;;;14.82;49.49
20825;BME280;10573;50.936;6.978;2022-12-29T09:04:09;100044.72;;;14.76;49.79
20825;BME280;10573;50.936;6.978;2022-12-29T09:06:35;100049.50;;;14.89;49.13
20825;BME280;10573;50.936;6.978;2022-12-29T09:09:00;100045.75;;;14.75;48.89
20825;BME280;10573;50.936;6.978;2022-12-29T09:11:26;100057.09;;;14.87;48.45
20825;BME280;10573;50.936;6.978;2022-12-29T09:13:52;100057.84;;;14.81;48.44
20825;BME280;10573;50.936;6.978;2022-12-29T09:16:20;100063.50;;;14.94;48.00
20825;BME280;10573;50.936;6.978;2022-12-29T09:18:46;100048.41;;;15.20;47.92
20825;BME280;10573;50.936;6.978;2022-12-29T09:21:12;100059.28;;;15.13;47.89
20825;BME280;10573;50.936;6.978;2022-12-29T09:23:38;100072.31;;;14.89;48.30
20825;BME280;10573;50.936;6.978;2022-12-29T09:26:04;100073.91;;;14.84;48.70
20825;BME280;10573;50.936;6.978;2022-12-29T09:28:30;100089.94;;;14.57;48.66
20825;BME280;10573;50.936;6.978;2022-12-29T09:30:56;100096.56;;;14.48;48.59
20825;BME280;10573;50.936;6.978;2022-12-29T09:33:22;100093.28;;;14.67;48.46
20825;BME280;10573;50.936;6.978;2022-12-29T09:35:53;100098.13;;;14.95;47.71
20825;BME280;10573;50.936;6.978;2022-12-29T09:38:19;100101.91;;;14.64;48.17
20825;BME280;10573;50.936;6.978;2022-12-29T09:40:50;100087.16;;;14.80;47.65
20825;BME280;10573;50.936;6.978;2022-12-29T09:48:37;100103.22;;;14.68;47.12
20825;BME280;10573;50.936;6.978;2022-12-29T09:51:11;100121.94;;;14.80;46.61
20825;BME280;10573;50.936;6.978;2022-12-29T09:53:41;100098.38;;;15.15;46.07
20825;BME280;10573;50.936;6.978;2022-12-29T09:56:14;100106.53;;;15.08;46.45
20825;BME280;10573;50.936;6.978;2022-12-29T09:58:44;100104.69;;;15.16;46.05
20825;BME280;10573;50.936;6.978;2022-12-29T10:03:49;100107.94;;;15.04;45.90
20825;BME280;10573;50.936;6.978;2022-12-29T10:06:17;100120.44;;;14.92;46.10
20825;BME280;10573;50.936;6.978;2022-12-29T10:08:49;100109.63;;;14.75;46.37
20825;BME280;10573;50.936;6.978;2022-12-29T10:14:26;100106.41;;;15.17;45.77
20825;BME280;10573;50.936;6.978;2022-12-29T10:17:29;100098.03;;;14.88;46.28
20825;BME280;10573;50.936;6.978;2022-12-29T10:25:29;100088.63;;;15.86;44.57
20825;BME280;10573;50.936;6.978;2022-12-29T10:27:57;100081.00;;;15.44;44.30
20825;BME280;10573;50.936;6.978;2022-12-29T10:30:24;100088.38;;;15.81;44.08
20825;BME280;10573;50.936;6.978;2022-12-29T10:32:54;100094.66;;;15.38;44.47
20825;BME280;10573;50.936;6.978;2022-12-29T10:35:24;100097.75;;;15.35;44.26
20825;BME280;10573;50.936;6.978;2022-12-29T10:38:04;100107.16;;;15.10;44.56
20825;BME280;10573;50.936;6.978;2022-12-29T10:40:42;100088.75;;;15.99;43.27
20825;BME280;10573;50.936;6.978;2022-12-29T10:43:28;100094.44;;;15.39;44.14
20825;BME280;10573;50.936;6.978;2022-12-29T10:46:05;100097.59;;;15.36;44.07
20825;BME280;10573;50.936;6.978;2022-12-29T10:48:34;100105.75;;;15.30;44.56
20825;BME280;10573;50.936;6.978;2022-12-29T10:51:05;100118.69;;;15.21;44.61
20825;BME280;10573;50.936;6.978;2022-12-29T10:56:48;100106.50;;;15.60;44.14
20825;BME280;10573;50.936;6.978;2022-12-29T10:59:24;100101.19;;;15.95;43.50
20825;BME280;10573;50.936;6.978;2022-12-29T11:07:01;100109.03;;;15.25;44.85
20825;BME280;10573;50.936;6.978;2022-12-29T11:09:32;100115.41;;;15.62;44.52
20825;BME280;10573;50.936;6.978;2022-12-29T11:11:59;100110.31;;;15.44;45.08
20825;BME280;10573;50.936;6.978;2022-12-29T11:14:29;100114.56;;;15.47;45.16
20825;BME280;10573;50.936;6.978;2022-12-29T11:17:02;100121.16;;;15.67;44.81
20825;BME280;10573;50.936;6.978;2022-12-29T11:19:31;100131.03;;;15.98;44.06
20825;BME280;10573;50.936;6.978;2022-12-29T11:22:29;100131.72;;;15.49;44.75
20825;BME280;10573;50.936;6.978;2022-12-29T11:25:06;100131.94;;;15.32;44.60
20825;BME280;10573;50.936;6.978;2022-12-29T11:27:31;100134.03;;;15.30;44.74
20825;BME280;10573;50.936;6.978;2022-12-29T11:29:58;100122.06;;;15.53;44.64
20825;BME280;10573;50.936;6.978;2022-12-29T11:32:28;100133.44;;;15.50;44.88
20825;BME280;10573;50.936;6.978;2022-12-29T11:34:57;100142.47;;;15.65;44.38
20825;BME280;10573;50.936;6.978;2022-12-29T11:37:31;100139.59;;;15.73;43.98
20825;BME280;10573;50.936;6.978;2022-12-29T11:40:06;100143.44;;;15.79;44.11
20825;BME280;10573;50.936;6.978;2022-12-29T11:42:38;100126.59;;;15.46;44.73
20825;BME280;10573;50.936;6.978;2022-12-29T11:45:34;100147.06;;;15.28;44.97
20825;BME280;10573;50.936;6.978;2022-12-29T11:48:08;100151.41;;;15.37;45.10
20825;BME280;10573;50.936;6.978;2022-12-29T11:50:37;100154.00;;;15.09;45.84
20825;BME280;10573;50.936;6.978;2022-12-29T11:53:17;100158.50;;;15.47;45.29
20825;BME280;10573;50.936;6.978;2022-12-29T11:55:56;100162.50;;;15.14;45.66
20825;BME280;10573;50.936;6.978;2022-12-29T11:58:37;100161.06;;;15.33;45.55
20825;BME280;10573;50.936;6.978;2022-12-29T12:01:23;100164.31;;;14.92;45.76
20825;BME280;10573;50.936;6.978;2022-12-29T12:04:08;100164.41;;;15.14;45.65
20825;BME280;10573;50.936;6.978;2022-12-29T12:06:44;100166.38;;;15.20;45.81
20825;BME280;10573;50.936;6.978;2022-12-29T12:09:29;100169.22;;;15.26;45.04
20825;BME280;10573;50.936;6.978;2022-12-29T12:11:57;100169.34;;;15.70;44.40
20825;BME280;10573;50.936;6.978;2022-12-29T12:16:55;100167.16;;;15.80;44.31
20825;BME280;10573;50.936;6.978;2022-12-29T12:19:41;100163.31;;;15.59;44.57
20825;BME280;10573;50.936;6.978;2022-12-29T12:22:31;100166.56;;;15.33;44.98
20825;BME280;10573;50.936;6.978;2022-12-29T12:25:04;100181.13;;;15.49;45.03
20825;BME280;10573;50.936;6.978;2022-12-29T12:30:37;100177.75;;;14.87;46.13
20825;BME280;10573;50.936;6.978;2022-12-29T12:33:16;100179.44;;;15.33;45.17
20825;BME280;10573;50.936;6.978;2022-12-29T12:41:13;100196.47;;;15.13;45.64
20825;BME280;10573;50.936;6.978;2022-12-29T12:47:21;100213.22;;;15.03;46.65
20825;BME280;10573;50.936;6.978;2022-12-29T12:50:09;100200.47;;;15.25;45.74
20825;BME280;10573;50.936;6.978;2022-12-29T13:00:15;100217.44;;;15.66;45.54
20825;BME280;10573;50.936;6.978;2022-12-29T13:05:37;100204.16;;;17.63;41.58
20825;BME280;10573;50.936;6.978;2022-12-29T13:08:34;100199.84;;;17.95;40.68
20825;BME280;10573;50.936;6.978;2022-12-29T13:24:47;100232.81;;;15.00;46.82
20825;BME280;10573;50.936;6.978;2022-12-29T13:30:09;100230.16;;;14.92;47.41
20825;BME280;10573;50.936;6.978;2022-12-29T13:32:59;100244.22;;;14.89;47.74
20825;BME280;10573;50.936;6.978;2022-12-29T13:38:09;100227.72;;;15.27;47.29
20825;BME280;10573;50.936;6.978;2022-12-29T13:40:40;100244.06;;;14.67;47.96
20825;BME280;10573;50.936;6.978;2022-12-29T13:43:08;100238.28;;;15.00;47.59
20825;BME280;10573;50.936;6.978;2022-12-29T13:45:34;100238.09;;;14.87;47.90
20825;BME280;10573;50.936;6.978;2022-12-29T13:48:20;100253.34;;;15.34;47.00
20825;BME280;10573;50.936;6.978;2022-12-29T13:50:52;100248.34;;;15.23;47.43
20825;BME280;10573;50.936;6.978;2022-12-29T13:53:40;100245.59;;;15.38;46.91
20825;BME280;10573;50.936;6.978;2022-12-29T13:58:38;100257.25;;;14.72;48.17
20825;BME280;10573;50.936;6.978;2022-12-29T14:01:23;100258.56;;;14.76;47.85
20825;BME280;10573;50.936;6.978;2022-12-29T14:03:58;100256.19;;;15.26;47.21
20825;BME280;10573;50.936;6.978;2022-12-29T14:06:27;100257.81;;;15.35;46.81
20825;BME280;10573;50.936;6.978;2022-12-29T14:08:58;100263.28;;;15.05;47.25
20825;BME280;10573;50.936;6.978;2022-12-29T14:11:31;100273.50;;;15.41;47.00
20825;BME280;10573;50.936;6.978;2022-12-29T14:13:57;100267.25;;;15.63;46.43
20825;BME280;10573;50.936;6.978;2022-12-29T14:16:33;100269.72;;;15.42;46.96
20825;BME280;10573;50.936;6.978;2022-12-29T14:19:29;100274.81;;;15.46;46.88
20825;BME280;10573;50.936;6.978;2022-12-29T14:22:05;100276.81;;;15.07;47.79
20825;BME280;10573;50.936;6.978;2022-12-29T14:34:59;100291.75;;;14.58;49.30
20825;BME280;10573;50.936;6.978;2022-12-29T14:37:30;100299.78;;;14.68;49.44
20825;BME280;10573;50.936;6.978;2022-12-29T14:40:15;100305.06;;;14.38;49.83
20825;BME280;10573;50.936;6.978;2022-12-29T14:42:46;100322.56;;;14.05;50.78
20825;BME280;10573;50.936;6.978;2022-12-29T14:47:50;100328.41;;;14.02;51.08
20825;BME280;10573;50.936;6.978;2022-12-29T14:52:59;100317.72;;;14.16;51.51
20825;BME280;10573;50.936;6.978;2022-12-29T14:55:46;100311.78;;;14.35;50.73
20825;BME280;10573;50.936;6.978;2022-12-29T14:58:27;100311.47;;;13.99;51.40
20825;BME280;10573;50.936;6.978;2022-12-29T15:00:53;100316.09;;;13.98;51.54
20825;BME280;10573;50.936;6.978;2022-12-29T15:03:32;100305.28;;;14.05;51.05
20825;BME280;10573;50.936;6.978;2022-12-29T15:06:11;100309.97;;;13.88;51.14
20825;BME280;10573;50.936;6.978;2022-12-29T15:08:50;100319.31;;;14.10;50.99
20825;BME280;10573;50.936;6.978;2022-12-29T15:11:23;100314.84;;;13.69;50.94
20825;BME280;10573;50.936;6.978;2022-12-29T15:13:49;100319.84;;;13.57;51.20